Terminal Aerodrome Forecast
Issued by NWS

Home | Current Version | Previous Version | Text Only | Print | Product List | Glossary On
Versions: 1 2 3 4 5 6 7 8 9 10 11 12 13
000
FTUS44 KLZK 201700 RRA
TAFBPK
TAF
KBPK 201743Z 2018/2118 18007KT P6SM SCT050 BKN250
     FM210100 14004KT P6SM SCT060 BKN250
     FM210600 14004KT P6SM VCSH SCT020 BKN060
      TEMPO 2110/2114 5SM SHRA BR BKN020
     FM211400 18006KT 5SM SHRA BR OVC025=

USA.gov is the U.S. government's official web portal to all federal, state and local government web resources and services.